Hlavní strana
METAR-TAF:

METAR-TAF

Letiště :

Rimini, Itálie

zeměpisná šířka: 44-02N, zeměpisná délka: 012-37E, výška: 12 m

Aktuální stav počasí

Zpráva byla vytvořena před 29 minutami, v 07:50 UTC
Jižní vítr 11 kt
Teplota 30°C
Vlhkost vzduchu 38%
Tlak 1015 hPa
Viditelnost 10 km a více
Žádná oblačnost pod 1500 m, nevyskytují se cumulonimby.

METAR: LIPR 190750Z 19011KT CAVOK 30/14 Q1015

Čas: 10:19 (08:19 UTC)

Předpověď počasí

Zpráva byla vytvořena před 3 hodinami a 19 minutami, v 05:00 UTC
Předpověď platná od 19 v 06 UTC do 20 v 06 UTC
vítr z různých směrů 4 kt
Viditelnost 10 km a více
Žádná oblačnost pod 1500 m, nevyskytují se cumulonimby.
Změna
od 19 v 12 UTC do 19 v 14 UTC
Východní vítr 10 kt
Změna
od 19 v 17 UTC do 19 v 19 UTC
vítr z různých směrů 4 kt

TAF: LIPR 190500Z 1906/2006 VRB04KT CAVOK BECMG 1912/1914 09010KT BECMG 1917/1919 VRB04KT

Stav a předpovědi počasí z více než 4 000 letišť (zprávy METAR a TAF).

Červené a žluté tečky na mapě představují dostupné meteorologické stanice.

Když kurzor umístíte na tečku, zobrazí se název stanice.

Pak kliknutím zobrazíte stav a předpověď počasí.

Chcete-li změnit mapu, kliknutím na zelené tlačítko se znaménkem +mapu přiblížíte, kliknutím na zelené tlačítko se znaménkem – mapu oddálíte a kliknutím na zelené šipky přejdete na sousední mapy.


METAR-TAF: